This is the latest recevied weather packets stored in our database for station/object XE2B-20. If no packets are shown the sender has not sent any weather packets the latest 1 day(s).
| Time | Temp. | Humidity | Pressure | Rain* | Wind** | Luminosity | Snow |
|---|---|---|---|---|---|---|---|
| 1778102291 | 35° C | 11% | 803.7 hPa | - | - | - | - |
| 1778100793 | 35.56° C | 11% | 804.1 hPa | - | - | - | - |
| 1778096297 | 33.89° C | 11% | 805.2 hPa | - | - | - | - |
| 1778082806 | 30.56° C | 13% | 807 hPa | - | - | - | - |
| 1778081307 | 31.67° C | 12% | 806.9 hPa | - | - | - | - |
| 1778078308 | 28.89° C | 13% | 807.1 hPa | - | - | - | - |
| 1778076810 | 27.22° C | 13% | 806.9 hPa | - | - | - | - |
| 1778075312 | 25.56° C | 14% | 806.7 hPa | - | - | - | - |
| 1778073812 | 22.22° C | 15% | 806.6 hPa | - | - | - | - |
| 1778070811 | 15° C | 19% | 806.2 hPa | - | - | - | - |
| 1778064816 | 15.56° C | 18% | 805.4 hPa | - | - | - | - |
| 1778063317 | 16.11° C | 18% | 805 hPa | - | - | - | - |
| 1778061822 | 17.78° C | 18% | 805.1 hPa | - | - | - | - |
| 1778058825 | 21.11° C | 16% | 804.8 hPa | - | - | - | - |
| 1778055836 | 21.67° C | 15% | 805.1 hPa | - | - | - | - |
| 1778054330 | 21.67° C | 15% | 805.1 hPa | - | - | - | - |
| 1778052832 | 21.67° C | 15% | 805.3 hPa | - | - | - | - |
| 1778051333 | 22.22° C | 15% | 805.4 hPa | - | - | - | - |
| 1778049833 | 22.22° C | 15% | 805.4 hPa | - | - | - | - |
| 1778048334 | 22.78° C | 15% | 805.4 hPa | - | - | - | - |
| 1778046836 | 22.78° C | 14% | 805.7 hPa | - | - | - | - |
| 1778045336 | 22.78° C | 15% | 805.7 hPa | - | - | - | - |
| 1778042340 | 23.89° C | 14% | 805.5 hPa | - | - | - | - |
| 1778040847 | 23.89° C | 15% | 805.3 hPa | - | - | - | - |
| 1778039342 | 24.44° C | 15% | 805 hPa | - | - | - | - |
* Rain since midnight (hover to see other rain measurements)
** Current wind speed in m/s (hover to see current wind gust speed)